Latest Weather Observations for Kanagulk

IDV60801

Issued at 3:02 pm EST Wednesday 28 June 2017 (issued every 30 minutes, with the page automatically refreshed every 10 minutes)

About weather observations | Map of weather stations | Latest weather observations for VIC | Other Formats
Station Details ID: 079097 Name: KANAGULK Lat: -37.12 Lon: 141.80 Height: 188.8 m
Data from the previous 72 hours. | See also: Recent months at Kanagulk
Date/Time
EST
Temp
°C
App
Temp
°C
Dew
Point
°C
Rel
Hum
%
Delta-T
°C
Wind Press
QNH
hPa
Press
MSL
hPa
Rain since
9am
mm
Dir  Spd
km/h
Gust
km/h
Spd
kts
Gust
kts
28/03:00pm 13.1 11.5 8.2 72 2.4 NNW 6 11 3 6 1021.1 1021.4 0.2
28/02:30pm 13.9 11.8 8.1 68 2.9 NNW 9 19 5 10 1021.1 1021.4 0.0
28/02:00pm 12.5 11.0 9.3 81 1.6 E 7 11 4 6 1021.5 1021.8 0.0
28/01:30pm 12.1 10.5 10.2 88 1.0 ENE 9 11 5 6 1021.7 1022.0 0.0
28/01:00pm 11.6 9.5 9.7 88 1.0 NE 11 13 6 7 1022.0 1022.3 0.0
28/12:30pm 11.3 8.8 9.6 89 0.9 NE 13 17 7 9 1022.4 1022.7 0.0
28/12:00pm 12.4 10.4 10.1 86 1.2 NNE 11 15 6 8 1022.6 1022.9 0.0
28/11:30am 11.4 8.7 10.5 94 0.5 NNE 15 19 8 10 1023.0 1023.3 0.0
28/11:00am 10.1 8.1 10.0 99 0.1 NNE 11 15 6 8 1023.1 1023.4 0.0
28/10:30am 9.4 6.8 9.3 99 0.0 NNE 13 15 7 8 1023.2 1023.5 0.0
28/10:00am 8.9 6.2 8.8 99 0.0 NE 13 17 7 9 1023.0 1023.3 0.0
28/09:30am 8.0 5.5 8.0 100 0.0 NNE 11 17 6 9 1022.9 1023.2 0.0
28/09:00am 6.9 4.5 6.9 100 0.0 NNE 9 13 5 7 1022.7 1023.0 0.0
28/08:30am 5.4 3.2 5.4 100 0.0 NNE 6 7 3 4 1022.6 1022.9 0.0
28/08:00am 5.4 3.2 5.4 100 0.0 NE 6 9 3 5 1022.4 1022.7 0.0
28/07:30am 5.4 2.6 5.3 99 0.0 NNE 9 11 5 6 1022.3 1022.6 0.0
28/07:00am 6.3 3.0 6.3 100 0.0 NNE 13 17 7 9 1022.0 1022.3 0.0
28/06:30am 6.1 3.5 6.0 99 0.0 NNE 9 13 5 7 1022.0 1022.3 0.0
28/06:00am 6.5 3.6 6.4 99 0.0 NE 11 13 6 7 1021.6 1021.9 0.0
28/05:30am 7.2 4.8 7.1 99 0.0 NNE 9 11 5 6 1021.7 1022.0 0.0
28/05:00am 7.4 4.7 7.3 99 0.0 NNE 11 15 6 8 1021.7 1022.0 0.0
28/04:30am 7.4 4.7 7.3 99 0.0 N 11 15 6 8 1022.0 1022.3 0.0
28/04:00am 6.9 3.7 6.8 99 0.0 NNE 13 15 7 8 1021.7 1022.0 0.0
28/03:30am 6.9 4.8 6.8 99 0.0 NNE 7 11 4 6 1021.9 1022.2 0.0
28/03:00am 7.7 5.1 7.6 99 0.0 NNE 11 13 6 7 1022.2 1022.5 0.0
28/02:30am 7.4 5.1 7.3 99 0.0 NE 9 11 5 6 1022.2 1022.5 0.0
28/02:00am 7.7 5.8 7.6 99 0.0 NE 7 9 4 5 1022.1 1022.4 0.0
28/01:30am 7.8 5.6 7.7 99 0.0 NE 9 11 5 6 1022.2 1022.5 0.0
28/01:00am 8.0 5.8 7.9 99 0.0 NE 9 13 5 7 1022.2 1022.5 0.0
28/12:30am 8.1 5.9 8.0 99 0.0 NE 9 11 5 6 1022.5 1022.8 0.0
28/12:00am 8.3 6.2 8.2 99 0.0 N 9 11 5 6 1022.6 1022.9 0.0
 
Date/Time
EST
Temp
°C
App
Temp
°C
Dew
Point
°C
Rel
Hum
%
Delta-T
°C
Wind Press
QNH
hPa
Press
MSL
hPa
Rain since
9am
mm
Dir  Spd
km/h
Gust
km/h
Spd
kts
Gust
kts
27/11:30pm 8.4 5.9 8.3 99 0.0 NNE 11 15 6 8 1022.6 1022.9 0.0
27/11:00pm 8.3 5.8 8.2 99 0.0 NNE 11 15 6 8 1022.5 1022.8 0.0
27/10:30pm 7.6 5.7 7.5 99 0.0 N 7 11 4 6 1022.6 1022.9 0.0
27/10:00pm 8.3 5.8 8.2 99 0.0 N 11 13 6 7 1022.6 1022.9 0.0
27/09:30pm 8.8 6.0 8.5 98 0.1 NNE 13 17 7 9 1022.5 1022.8 0.0
27/09:00pm 9.1 6.3 8.6 97 0.2 NNE 13 17 7 9 1022.6 1022.9 0.0
27/08:30pm 9.2 6.4 8.4 95 0.4 NNE 13 17 7 9 1022.3 1022.6 0.0
27/08:00pm 9.6 7.2 8.8 95 0.4 NNE 11 17 6 9 1022.2 1022.5 0.0
27/07:30pm 9.1 7.0 8.2 94 0.4 NNE 9 15 5 8 1022.1 1022.4 0.0
27/07:00pm 9.5 6.3 8.3 92 0.6 NNE 15 20 8 11 1022.1 1022.4 0.0
27/06:30pm 9.8 7.4 8.7 93 0.5 NNE 11 13 6 7 1022.1 1022.4 0.0
27/06:00pm 9.7 7.3 8.6 93 0.5 NNE 11 15 6 8 1022.0 1022.3 0.0
27/05:30pm 10.1 7.6 8.2 88 0.9 NNE 11 13 6 7 1021.9 1022.2 0.0
27/05:00pm 11.2 8.7 8.2 82 1.5 NNE 11 15 6 8 1021.9 1022.2 0.0
27/04:30pm 11.6 8.8 8.5 81 1.5 N 13 19 7 10 1022.1 1022.4 0.0
27/04:00pm 11.7 8.8 8.2 79 1.7 N 13 17 7 9 1022.1 1022.4 0.0
27/03:30pm 12.4 8.8 8.5 77 2.0 N 17 20 9 11 1022.1 1022.4 0.0
27/03:00pm 12.5 9.7 8.4 76 2.0 N 13 20 7 11 1022.1 1022.4 0.0
27/02:30pm 13.3 10.9 8.6 73 2.4 NNW 11 19 6 10 1022.2 1022.5 0.0
27/02:00pm 13.0 9.1 8.7 75 2.2 N 19 26 10 14 1022.5 1022.8 0.0
27/01:30pm 13.0 9.3 8.1 72 2.4 N 17 26 9 14 1022.8 1023.1 0.0
27/01:00pm 12.1 9.1 7.6 74 2.2 NNW 13 26 7 14 1023.3 1023.6 0.0
27/12:30pm 11.5 8.5 7.8 78 1.8 N 13 20 7 11 1023.7 1024.1 0.0
27/12:00pm 11.0 8.0 7.5 79 1.7 N 13 20 7 11 1024.1 1024.5 0.0
27/11:30am 10.7 7.9 7.0 78 1.8 N 11 17 6 9 1024.7 1025.0 0.0
27/11:00am 10.5 8.2 7.6 82 1.4 NNW 9 15 5 8 1024.9 1025.2 0.0
27/10:30am 9.8 7.4 7.2 84 1.2 N 9 15 5 8 1024.8 1025.1 0.0
27/10:00am 9.4 6.3 7.3 87 1.0 N 13 17 7 9 1024.7 1025.0 0.0
27/09:30am 8.6 6.9 7.7 94 0.4 N 6 9 3 5 1024.7 1025.0 0.0
27/09:00am 8.3 5.4 8.2 99 0.0 NNE 13 17 7 9 1024.4 1024.7 0.0
27/08:30am 8.0 6.2 7.9 99 0.0 NE 7 11 4 6 1024.4 1024.7 0.0
27/08:00am 7.8 7.3 7.7 99 0.0 CALM 0 2 0 1 1024.3 1024.6 0.0
27/07:30am 7.9 6.3 7.8 99 0.0 NE 6 9 3 5 1024.1 1024.5 0.0
27/07:00am 7.9 7.4 7.8 99 0.0 CALM 0 7 0 4 1024.0 1024.4 0.0
27/06:30am 7.9 7.4 7.8 99 0.0 CALM 0 0 0 0 1024.3 1024.6 0.0
27/06:00am 8.1 6.5 8.0 99 0.0 NNE 6 9 3 5 1024.3 1024.6 0.0
27/05:30am 7.8 6.5 7.7 99 0.0 NNE 4 7 2 4 1024.4 1024.7 0.0
27/05:00am 7.8 7.3 7.7 99 0.0 CALM 0 2 0 1 1024.3 1024.6 0.0
27/04:30am 8.1 6.3 8.0 99 0.0 ENE 7 13 4 7 1024.1 1024.5 0.0
27/04:00am 8.0 7.5 7.9 99 0.0 CALM 0 0 0 0 1024.1 1024.5 0.0
27/03:30am 8.1 7.6 8.0 99 0.0 CALM 0 0 0 0 1024.4 1024.7 0.0
27/03:00am 8.2 7.8 8.1 99 0.0 CALM 0 0 0 0 1024.6 1024.9 0.0
27/02:30am 8.2 7.8 8.1 99 0.0 CALM 0 0 0 0 1025.0 1025.3 0.0
27/02:00am 8.2 7.8 8.1 99 0.0 CALM 0 0 0 0 1025.0 1025.3 0.0
27/01:30am 8.4 8.0 8.3 99 0.0 CALM 0 0 0 0 1025.1 1025.4 0.0
27/01:00am 8.5 8.1 8.4 99 0.0 CALM 0 0 0 0 1025.2 1025.5 0.0
27/12:30am 8.7 8.3 8.4 98 0.1 CALM 0 0 0 0 1025.4 1025.7 0.0
27/12:00am 8.8 7.6 7.9 94 0.4 ENE 4 9 2 5 1025.6 1025.9 0.0
 
Date/Time
EST
Temp
°C
App
Temp
°C
Dew
Point
°C
Rel
Hum
%
Delta-T
°C
Wind Press
QNH
hPa
Press
MSL
hPa
Rain since
9am
mm
Dir  Spd
km/h
Gust
km/h
Spd
kts
Gust
kts
26/11:30pm 8.5 8.1 8.2 98 0.1 CALM 0 0 0 0 1025.7 1026.0 0.0
26/11:00pm 8.6 8.3 8.5 99 0.0 CALM 0 0 0 0 1025.6 1025.9 0.0
26/10:30pm 8.8 8.4 8.2 96 0.3 CALM 0 0 0 0 1025.6 1025.9 0.0
26/10:00pm 8.9 8.5 8.3 96 0.3 CALM 0 0 0 0 1025.6 1025.9 0.0
26/09:30pm 9.1 8.8 8.8 98 0.1 CALM 0 0 0 0 1025.7 1026.0 0.0
26/09:00pm 9.0 8.8 8.9 99 0.0 CALM 0 0 0 0 1025.6 1025.9 0.0
26/08:30pm 9.0 8.8 8.9 99 0.0 CALM 0 0 0 0 1025.7 1026.0 0.0
26/08:00pm 9.3 9.0 8.8 97 0.2 CALM 0 0 0 0 1025.6 1025.9 0.0
26/07:30pm 9.3 9.0 8.5 95 0.4 CALM 0 0 0 0 1025.5 1025.8 0.0
26/07:00pm 9.5 9.2 8.7 95 0.4 CALM 0 0 0 0 1025.2 1025.5 0.0
26/06:30pm 9.4 9.0 8.3 93 0.5 CALM 0 0 0 0 1025.1 1025.4 0.0
26/06:00pm 9.7 9.2 7.8 88 0.9 CALM 0 0 0 0 1025.0 1025.3 0.0
26/05:30pm 10.1 9.6 8.0 87 1.0 CALM 0 0 0 0 1024.9 1025.2 0.0
26/05:00pm 10.6 10.1 7.7 82 1.4 CALM 0 0 0 0 1024.8 1025.1 0.0
26/04:30pm 11.0 10.4 7.5 79 1.7 CALM 0 0 0 0 1024.6 1024.9 0.0
26/04:00pm 11.3 10.7 7.2 76 2.0 CALM 0 0 0 0 1024.5 1024.8 0.0
26/03:30pm 12.0 11.0 7.3 73 2.3 SW 2 7 1 4 1024.4 1024.7 0.0
26/03:00pm 11.1 10.5 7.2 77 1.9 CALM 0 0 0 0 1024.3 1024.6 0.0
26/02:30pm 11.0 10.1 7.9 81 1.5 ESE 2 7 1 4 1024.0 1024.4 0.0
26/02:00pm 10.7 9.8 7.8 82 1.4 ESE 2 7 1 4 1024.1 1024.5 0.0
26/01:30pm 11.1 10.4 8.5 84 1.3 ENE 2 9 1 5 1024.3 1024.6 0.0
26/01:00pm 9.8 9.0 8.1 89 0.8 N 2 7 1 4 1024.6 1024.9 0.0
26/12:30pm 9.2 7.6 8.9 98 0.1 ENE 7 9 4 5 1024.8 1025.1 0.0
26/12:00pm 10.3 9.6 10.1 99 0.1 N 4 13 2 7 1025.2 1025.5 0.0
26/11:30am 8.9 7.9 8.9 100 0.0 N 4 7 2 4 1025.5 1025.8 0.0
26/11:00am 8.6 7.5 8.6 100 0.0 N 4 7 2 4 1025.5 1025.8 0.0
26/10:30am 8.0 6.8 8.0 100 0.0 WNW 4 7 2 4 1025.4 1025.7 0.0
26/10:00am 8.0 7.5 8.0 100 0.0 CALM 0 0 0 0 1025.1 1025.4 0.0
26/09:30am 7.3 5.9 7.3 100 0.0 N 4 11 2 6 1024.6 1024.9 0.0
26/09:00am 6.8 5.7 6.8 100 0.0 NNW 2 6 1 3 1024.0 1024.4 2.6
26/08:30am 6.5 5.7 6.5 100 0.0 CALM 0 0 0 0 1023.6 1024.0 2.6
26/08:00am 6.5 5.7 6.5 100 0.0 CALM 0 0 0 0 1023.3 1023.6 2.6
26/07:30am 6.8 6.1 6.8 100 0.0 CALM 0 0 0 0 1022.9 1023.2 2.6
26/07:00am 6.8 4.7 6.8 100 0.0 SW 7 9 4 5 1022.4 1022.7 2.6
26/06:30am 7.1 5.7 7.1 100 0.0 SSW 4 9 2 5 1022.2 1022.5 2.4
26/06:00am 7.4 6.0 7.4 100 0.0 WSW 4 11 2 6 1021.8 1022.1 2.4
26/05:30am 7.6 5.9 7.6 100 0.0 WSW 6 9 3 5 1021.6 1021.9 2.4
26/05:00am 7.9 6.3 7.9 100 0.0 W 6 9 3 5 1021.5 1021.8 2.4
26/04:30am 7.7 6.4 7.7 100 0.0 W 4 9 2 5 1021.4 1021.7 2.4
26/04:00am 7.7 7.2 7.7 100 0.0 CALM 0 0 0 0 1021.3 1021.6 2.4
26/03:30am 8.0 7.5 8.0 100 0.0 CALM 0 0 0 0 1021.3 1021.6 2.4
26/03:00am 8.1 7.7 8.1 100 0.0 CALM 0 0 0 0 1021.2 1021.5 2.4
26/02:30am 8.2 7.4 8.2 100 0.0 WSW 2 7 1 4 1020.9 1021.2 2.4
26/02:00am 8.2 7.0 8.2 100 0.0 WSW 4 9 2 5 1020.7 1021.0 2.4
26/01:30am 8.2 6.5 8.2 100 0.0 W 7 13 4 7 1020.4 1020.7 2.4
26/01:00am 8.2 7.0 8.2 100 0.0 WNW 4 9 2 5 1020.3 1020.6 2.4
26/12:30am 8.1 7.7 8.1 100 0.0 CALM 0 2 0 1 1020.4 1020.7 2.4
26/12:00am 8.1 7.3 8.1 100 0.0 WSW 2 7 1 4 1020.3 1020.6 2.4
 
Date/Time
EST
Temp
°C
App
Temp
°C
Dew
Point
°C
Rel
Hum
%
Delta-T
°C
Wind Press
QNH
hPa
Press
MSL
hPa
Rain since
9am
mm
Dir  Spd
km/h
Gust
km/h
Spd
kts
Gust
kts
25/11:30pm 7.2 6.6 7.2 100 0.0 CALM 0 0 0 0 1020.1 1020.4 2.4
25/11:00pm 8.3 7.9 8.3 100 0.0 CALM 0 7 0 4 1019.8 1020.1 2.4
25/10:30pm 8.1 7.7 8.1 100 0.0 CALM 0 6 0 3 1019.8 1020.1 2.4
25/10:00pm 8.9 7.9 8.9 100 0.0 W 4 9 2 5 1019.7 1020.0 2.4
25/09:30pm 9.1 7.6 9.1 100 0.0 W 7 13 4 7 1019.6 1019.9 2.0
25/09:00pm 8.5 7.0 8.5 100 0.0 WNW 6 7 3 4 1019.4 1019.7 1.0
25/08:30pm 8.6 7.1 8.6 100 0.0 NW 6 9 3 5 1019.3 1019.6 1.0
25/08:00pm 8.7 7.1 8.7 100 0.0 WNW 7 11 4 6 1018.9 1019.1 1.0
25/07:30pm 9.1 8.1 9.0 99 0.0 NW 4 7 2 4 1018.4 1018.7 1.0
25/07:00pm 9.5 7.7 9.4 99 0.0 W 9 17 5 9 1018.1 1018.4 1.0
25/06:30pm 9.7 8.9 9.6 99 0.1 W 4 11 2 6 1017.9 1018.2 0.8
25/06:00pm 9.8 7.7 9.7 99 0.1 W 11 17 6 9 1017.4 1017.7 0.8
25/05:30pm 10.6 9.2 9.4 92 0.6 WNW 7 11 4 6 1017.1 1017.4 0.6
25/05:00pm 10.8 9.2 8.9 88 0.9 W 7 11 4 6 1016.7 1017.0 0.6
25/04:30pm 11.3 9.4 8.9 85 1.2 W 9 20 5 11 1016.6 1016.9 0.6
25/04:00pm 11.2 9.2 8.6 84 1.3 W 9 15 5 8 1016.6 1016.9 0.6
25/03:30pm 12.4 9.3 8.7 78 1.9 WNW 15 28 8 15 1016.3 1016.6 0.6

Other Formats:

Comma delimited format used in spreadsheet applications
http://www.bom.gov.au/fwo/IDV60801/IDV60801.95827.axf

JavaScript Object Notation format (JSON) in row-major order
http://www.bom.gov.au/fwo/IDV60801/IDV60801.95827.json